Lauro Carneiro de Loyola Airport
SBJV : now visible

Airfield :











YOU CAN JOIN US ON...

 
LOGIN :

Register | Disclaimer

   EN    FR    IT 

 









Legend :    VFR   Marginal VFR   IFR   Intensive IFR   Very Intensive IFR
Visi :
Ceiling :
>= 8 km
>= 3000ft
5 to 8 km
1000 to 3000 ft
1500m to 5 km
500 to 1000 ft
800 to 1500m
200 to 500 ft
< 800m
< 200 ft
Symbols :   Thunderstorms  Fog  Heavy snow  Heavy precipitations  Wind > 20 kt






- Airport Elevation : 15 ft
- IATA code : JOI


SBJV - Lauro Carneiro de Loyola

METAR N/A
TAF TAF SBJV
Valid from the 24 at 12:00 until the 25 at 00:00 UTC


240900Z 2412/2424 08006KT 8000 SHRA BKN012 TX26/2417Z TN22/2423Z
BECMG 2416/2418 9999 SCT022 FEW033TCU
BECMG 2421/2423 34002KT 8000 SCT005 SCT033 RMK PAY
SBCW FIR / South America



MET'MAP, your aeronautical weather chart ! - Copyright ORBIFLY December 2007 - Disclaimer

ORBIFLY MET'MAP TEAM :

Programming & Development : Alexandra Zaïnal
Concept & original design : Baudouin d'Aumeries
Assistance for programming : Marc-Olivier Méhu
Technical & hardware support : Manuel Goepfert

Contact : metmap@orbifly.com




SOURCES & CREDITS :

   NOAA       Earth
Advisory